sensor_id;sensor_type;location;lat;lon;timestamp;temperature;humidity
15969;DHT22;8085;53.472;9.794;2023-07-20T00:00:06;13.60;90.10
15969;DHT22;8085;53.472;9.794;2023-07-20T00:02:34;13.60;90.20
15969;DHT22;8085;53.472;9.794;2023-07-20T00:05:01;13.60;90.10
15969;DHT22;8085;53.472;9.794;2023-07-20T00:07:28;13.70;90.20
15969;DHT22;8085;53.472;9.794;2023-07-20T00:09:55;13.70;90.20
15969;DHT22;8085;53.472;9.794;2023-07-20T00:12:24;13.70;90.10
15969;DHT22;8085;53.472;9.794;2023-07-20T00:14:51;13.70;90.10
15969;DHT22;8085;53.472;9.794;2023-07-20T00:17:19;13.80;90.00
15969;DHT22;8085;53.472;9.794;2023-07-20T00:19:46;13.80;90.00
15969;DHT22;8085;53.472;9.794;2023-07-20T00:22:13;13.70;89.70
15969;DHT22;8085;53.472;9.794;2023-07-20T00:24:40;13.70;89.70
15969;DHT22;8085;53.472;9.794;2023-07-20T00:27:07;13.70;89.70
15969;DHT22;8085;53.472;9.794;2023-07-20T00:29:35;13.70;89.60
15969;DHT22;8085;53.472;9.794;2023-07-20T00:32:03;13.80;89.50
15969;DHT22;8085;53.472;9.794;2023-07-20T00:34:31;13.70;90.00
15969;DHT22;8085;53.472;9.794;2023-07-20T00:36:58;13.80;89.20
15969;DHT22;8085;53.472;9.794;2023-07-20T00:39:25;13.80;89.20
15969;DHT22;8085;53.472;9.794;2023-07-20T00:41:52;13.70;89.10
15969;DHT22;8085;53.472;9.794;2023-07-20T00:44:19;13.80;89.20
15969;DHT22;8085;53.472;9.794;2023-07-20T00:46:47;13.70;89.10
15969;DHT22;8085;53.472;9.794;2023-07-20T00:49:15;13.80;89.20
15969;DHT22;8085;53.472;9.794;2023-07-20T00:51:42;13.80;89.20
15969;DHT22;8085;53.472;9.794;2023-07-20T00:54:09;13.70;88.90
15969;DHT22;8085;53.472;9.794;2023-07-20T00:56:36;13.70;89.20
15969;DHT22;8085;53.472;9.794;2023-07-20T00:59:03;13.60;89.90
15969;DHT22;8085;53.472;9.794;2023-07-20T01:01:30;13.60;90.20
15969;DHT22;8085;53.472;9.794;2023-07-20T01:03:58;13.60;90.50
15969;DHT22;8085;53.472;9.794;2023-07-20T01:06:30;13.50;90.60
15969;DHT22;8085;53.472;9.794;2023-07-20T01:09:08;13.50;90.70
15969;DHT22;8085;53.472;9.794;2023-07-20T01:11:38;13.50;90.90
15969;DHT22;8085;53.472;9.794;2023-07-20T01:14:07;13.50;91.00
15969;DHT22;8085;53.472;9.794;2023-07-20T01:16:35;13.60;91.30
15969;DHT22;8085;53.472;9.794;2023-07-20T01:19:03;13.60;91.30
15969;DHT22;8085;53.472;9.794;2023-07-20T01:21:38;13.60;91.30
15969;DHT22;8085;53.472;9.794;2023-07-20T01:27:32;13.60;91.60
15969;DHT22;8085;53.472;9.794;2023-07-20T01:30:22;13.50;91.50
15969;DHT22;8085;53.472;9.794;2023-07-20T01:32:54;13.50;91.60
15969;DHT22;8085;53.472;9.794;2023-07-20T01:35:25;13.60;91.80
15969;DHT22;8085;53.472;9.794;2023-07-20T01:37:54;13.50;91.80
15969;DHT22;8085;53.472;9.794;2023-07-20T01:40:22;13.50;91.90
15969;DHT22;8085;53.472;9.794;2023-07-20T01:42:51;13.60;92.10
15969;DHT22;8085;53.472;9.794;2023-07-20T01:45:18;13.50;92.10
15969;DHT22;8085;53.472;9.794;2023-07-20T01:47:45;13.60;92.20
15969;DHT22;8085;53.472;9.794;2023-07-20T01:50:13;13.50;92.10
15969;DHT22;8085;53.472;9.794;2023-07-20T01:52:40;13.50;92.30
15969;DHT22;8085;53.472;9.794;2023-07-20T01:55:08;13.50;92.30
15969;DHT22;8085;53.472;9.794;2023-07-20T01:57:35;13.50;92.30
15969;DHT22;8085;53.472;9.794;2023-07-20T02:00:03;13.50;92.40
15969;DHT22;8085;53.472;9.794;2023-07-20T02:02:30;13.50;92.40
15969;DHT22;8085;53.472;9.794;2023-07-20T02:04:57;13.40;92.40
15969;DHT22;8085;53.472;9.794;2023-07-20T02:07:25;13.50;92.50
15969;DHT22;8085;53.472;9.794;2023-07-20T02:09:52;13.50;92.60
15969;DHT22;8085;53.472;9.794;2023-07-20T02:12:19;13.50;92.70
15969;DHT22;8085;53.472;9.794;2023-07-20T02:14:46;13.50;92.60
15969;DHT22;8085;53.472;9.794;2023-07-20T02:17:13;13.60;92.70
15969;DHT22;8085;53.472;9.794;2023-07-20T02:19:40;13.60;92.70
15969;DHT22;8085;53.472;9.794;2023-07-20T02:22:07;13.50;92.70
15969;DHT22;8085;53.472;9.794;2023-07-20T02:24:36;13.50;92.70
15969;DHT22;8085;53.472;9.794;2023-07-20T02:27:03;13.50;92.70
15969;DHT22;8085;53.472;9.794;2023-07-20T02:29:30;13.50;92.80
15969;DHT22;8085;53.472;9.794;2023-07-20T02:31:56;13.50;92.80
15969;DHT22;8085;53.472;9.794;2023-07-20T02:34:23;13.50;92.90
15969;DHT22;8085;53.472;9.794;2023-07-20T02:36:50;13.50;92.90
15969;DHT22;8085;53.472;9.794;2023-07-20T02:39:17;13.40;92.90
15969;DHT22;8085;53.472;9.794;2023-07-20T02:41:45;13.40;92.90
15969;DHT22;8085;53.472;9.794;2023-07-20T02:44:12;13.30;92.90
15969;DHT22;8085;53.472;9.794;2023-07-20T02:46:40;13.40;93.00
15969;DHT22;8085;53.472;9.794;2023-07-20T02:49:07;13.40;93.00
15969;DHT22;8085;53.472;9.794;2023-07-20T02:51:34;13.30;93.00
15969;DHT22;8085;53.472;9.794;2023-07-20T02:54:01;13.30;93.00
15969;DHT22;8085;53.472;9.794;2023-07-20T02:56:29;13.30;93.10
15969;DHT22;8085;53.472;9.794;2023-07-20T02:58:57;13.30;93.10
15969;DHT22;8085;53.472;9.794;2023-07-20T03:01:24;13.30;93.00
15969;DHT22;8085;53.472;9.794;2023-07-20T03:03:54;13.20;93.00
15969;DHT22;8085;53.472;9.794;2023-07-20T03:06:21;13.30;93.20
15969;DHT22;8085;53.472;9.794;2023-07-20T03:08:48;13.40;93.30
15969;DHT22;8085;53.472;9.794;2023-07-20T03:11:18;13.30;93.20
15969;DHT22;8085;53.472;9.794;2023-07-20T03:13:45;13.30;93.20
15969;DHT22;8085;53.472;9.794;2023-07-20T03:16:15;13.20;93.20
15969;DHT22;8085;53.472;9.794;2023-07-20T03:18:43;13.30;93.30
15969;DHT22;8085;53.472;9.794;2023-07-20T03:21:11;13.20;93.20
15969;DHT22;8085;53.472;9.794;2023-07-20T03:23:38;13.30;93.40
15969;DHT22;8085;53.472;9.794;2023-07-20T03:26:05;13.30;93.50
15969;DHT22;8085;53.472;9.794;2023-07-20T03:28:33;13.30;93.50
15969;DHT22;8085;53.472;9.794;2023-07-20T03:31:00;13.30;93.50
15969;DHT22;8085;53.472;9.794;2023-07-20T03:33:30;13.40;93.60
15969;DHT22;8085;53.472;9.794;2023-07-20T03:35:57;13.40;93.60
15969;DHT22;8085;53.472;9.794;2023-07-20T03:38:25;13.40;93.70
15969;DHT22;8085;53.472;9.794;2023-07-20T03:40:53;13.30;93.50
15969;DHT22;8085;53.472;9.794;2023-07-20T03:43:21;13.50;93.60
15969;DHT22;8085;53.472;9.794;2023-07-20T03:45:48;13.40;93.60
15969;DHT22;8085;53.472;9.794;2023-07-20T03:48:15;13.40;93.60
15969;DHT22;8085;53.472;9.794;2023-07-20T03:50:44;13.40;93.70
15969;DHT22;8085;53.472;9.794;2023-07-20T03:53:11;13.40;93.70
15969;DHT22;8085;53.472;9.794;2023-07-20T03:55:38;13.40;93.80
15969;DHT22;8085;53.472;9.794;2023-07-20T03:58:06;13.40;93.80
15969;DHT22;8085;53.472;9.794;2023-07-20T04:00:33;13.40;93.80
15969;DHT22;8085;53.472;9.794;2023-07-20T04:03:00;13.40;93.80
15969;DHT22;8085;53.472;9.794;2023-07-20T04:05:27;13.40;93.90
15969;DHT22;8085;53.472;9.794;2023-07-20T04:07:55;13.40;93.80
15969;DHT22;8085;53.472;9.794;2023-07-20T04:10:22;13.40;93.90
15969;DHT22;8085;53.472;9.794;2023-07-20T04:12:49;13.40;93.90
15969;DHT22;8085;53.472;9.794;2023-07-20T04:15:16;13.40;94.00
15969;DHT22;8085;53.472;9.794;2023-07-20T04:17:43;13.40;94.10
15969;DHT22;8085;53.472;9.794;2023-07-20T04:20:11;13.40;94.20
15969;DHT22;8085;53.472;9.794;2023-07-20T04:22:38;13.50;94.20
15969;DHT22;8085;53.472;9.794;2023-07-20T04:25:07;13.40;94.20
15969;DHT22;8085;53.472;9.794;2023-07-20T04:27:35;13.50;94.30
15969;DHT22;8085;53.472;9.794;2023-07-20T04:30:02;13.50;94.30
15969;DHT22;8085;53.472;9.794;2023-07-20T04:32:30;13.60;94.40
15969;DHT22;8085;53.472;9.794;2023-07-20T04:34:59;13.60;94.50
15969;DHT22;8085;53.472;9.794;2023-07-20T04:37:26;13.70;94.50
15969;DHT22;8085;53.472;9.794;2023-07-20T04:39:53;13.70;94.50
15969;DHT22;8085;53.472;9.794;2023-07-20T04:42:21;13.70;94.60
15969;DHT22;8085;53.472;9.794;2023-07-20T04:44:48;13.80;94.60
15969;DHT22;8085;53.472;9.794;2023-07-20T04:47:15;13.90;94.60
15969;DHT22;8085;53.472;9.794;2023-07-20T04:49:41;13.80;94.60
15969;DHT22;8085;53.472;9.794;2023-07-20T04:52:08;13.80;94.50
15969;DHT22;8085;53.472;9.794;2023-07-20T04:54:35;13.90;94.70
15969;DHT22;8085;53.472;9.794;2023-07-20T04:57:02;13.90;94.50
15969;DHT22;8085;53.472;9.794;2023-07-20T04:59:33;13.90;94.40
15969;DHT22;8085;53.472;9.794;2023-07-20T05:01:59;13.90;94.30
15969;DHT22;8085;53.472;9.794;2023-07-20T05:04:26;13.90;94.30
15969;DHT22;8085;53.472;9.794;2023-07-20T05:06:53;13.80;94.30
15969;DHT22;8085;53.472;9.794;2023-07-20T05:09:20;13.80;94.40
15969;DHT22;8085;53.472;9.794;2023-07-20T05:11:48;13.80;94.40
15969;DHT22;8085;53.472;9.794;2023-07-20T05:14:15;13.80;94.50
15969;DHT22;8085;53.472;9.794;2023-07-20T05:16:43;13.80;94.50
15969;DHT22;8085;53.472;9.794;2023-07-20T05:19:10;13.80;94.50
15969;DHT22;8085;53.472;9.794;2023-07-20T05:21:37;14.00;94.90
15969;DHT22;8085;53.472;9.794;2023-07-20T05:24:05;13.90;94.60
15969;DHT22;8085;53.472;9.794;2023-07-20T05:26:32;13.90;94.70
15969;DHT22;8085;53.472;9.794;2023-07-20T05:28:59;13.80;94.60
15969;DHT22;8085;53.472;9.794;2023-07-20T05:31:26;13.90;94.70
15969;DHT22;8085;53.472;9.794;2023-07-20T05:33:57;13.90;94.70
15969;DHT22;8085;53.472;9.794;2023-07-20T05:36:24;14.00;94.70
15969;DHT22;8085;53.472;9.794;2023-07-20T05:38:51;14.00;94.80
15969;DHT22;8085;53.472;9.794;2023-07-20T05:41:18;14.00;94.80
15969;DHT22;8085;53.472;9.794;2023-07-20T05:43:45;14.20;94.80
15969;DHT22;8085;53.472;9.794;2023-07-20T05:46:12;14.10;94.70
15969;DHT22;8085;53.472;9.794;2023-07-20T05:48:39;14.10;94.60
15969;DHT22;8085;53.472;9.794;2023-07-20T05:51:07;14.10;94.80
15969;DHT22;8085;53.472;9.794;2023-07-20T05:53:35;14.20;94.80
15969;DHT22;8085;53.472;9.794;2023-07-20T05:56:02;14.10;94.70
15969;DHT22;8085;53.472;9.794;2023-07-20T05:58:29;14.20;94.70
15969;DHT22;8085;53.472;9.794;2023-07-20T06:00:57;14.30;94.80
15969;DHT22;8085;53.472;9.794;2023-07-20T06:03:23;14.30;94.60
15969;DHT22;8085;53.472;9.794;2023-07-20T06:05:50;14.30;94.60
15969;DHT22;8085;53.472;9.794;2023-07-20T06:08:19;14.30;94.50
15969;DHT22;8085;53.472;9.794;2023-07-20T06:10:50;14.40;94.50
15969;DHT22;8085;53.472;9.794;2023-07-20T06:13:17;14.40;94.40
15969;DHT22;8085;53.472;9.794;2023-07-20T06:15:44;14.50;94.60
15969;DHT22;8085;53.472;9.794;2023-07-20T06:18:10;14.70;94.20
15969;DHT22;8085;53.472;9.794;2023-07-20T06:20:37;14.60;94.00
15969;DHT22;8085;53.472;9.794;2023-07-20T06:23:04;14.70;92.50
15969;DHT22;8085;53.472;9.794;2023-07-20T06:25:32;14.80;92.10
15969;DHT22;8085;53.472;9.794;2023-07-20T06:27:59;14.60;91.80
15969;DHT22;8085;53.472;9.794;2023-07-20T06:30:26;14.60;91.60
15969;DHT22;8085;53.472;9.794;2023-07-20T06:32:53;14.60;92.00
15969;DHT22;8085;53.472;9.794;2023-07-20T06:35:20;14.70;91.70
15969;DHT22;8085;53.472;9.794;2023-07-20T06:37:47;14.70;91.60
15969;DHT22;8085;53.472;9.794;2023-07-20T06:40:14;14.80;90.80
15969;DHT22;8085;53.472;9.794;2023-07-20T06:42:42;14.90;91.10
15969;DHT22;8085;53.472;9.794;2023-07-20T06:45:10;15.00;91.10
15969;DHT22;8085;53.472;9.794;2023-07-20T06:47:38;15.10;90.00
15969;DHT22;8085;53.472;9.794;2023-07-20T06:50:06;15.10;88.00
15969;DHT22;8085;53.472;9.794;2023-07-20T06:52:33;15.20;88.70
15969;DHT22;8085;53.472;9.794;2023-07-20T06:55:00;15.30;89.40
15969;DHT22;8085;53.472;9.794;2023-07-20T06:57:27;15.40;88.00
15969;DHT22;8085;53.472;9.794;2023-07-20T06:59:55;15.60;85.50
15969;DHT22;8085;53.472;9.794;2023-07-20T07:02:22;15.70;86.70
15969;DHT22;8085;53.472;9.794;2023-07-20T07:04:49;15.90;82.40
15969;DHT22;8085;53.472;9.794;2023-07-20T07:07:16;16.10;81.60
15969;DHT22;8085;53.472;9.794;2023-07-20T07:09:43;16.20;78.80
15969;DHT22;8085;53.472;9.794;2023-07-20T07:12:10;16.50;79.10
15969;DHT22;8085;53.472;9.794;2023-07-20T07:14:37;16.90;76.90
15969;DHT22;8085;53.472;9.794;2023-07-20T07:17:05;17.10;75.00
15969;DHT22;8085;53.472;9.794;2023-07-20T07:19:32;17.20;74.60
15969;DHT22;8085;53.472;9.794;2023-07-20T07:21:59;17.20;73.10
15969;DHT22;8085;53.472;9.794;2023-07-20T07:24:26;17.50;71.10
15969;DHT22;8085;53.472;9.794;2023-07-20T07:26:53;17.30;68.90
15969;DHT22;8085;53.472;9.794;2023-07-20T07:29:20;17.20;69.90
15969;DHT22;8085;53.472;9.794;2023-07-20T07:31:47;17.50;68.40
15969;DHT22;8085;53.472;9.794;2023-07-20T07:34:15;17.70;67.60
15969;DHT22;8085;53.472;9.794;2023-07-20T07:36:42;18.00;66.60
15969;DHT22;8085;53.472;9.794;2023-07-20T07:39:09;18.00;64.80
15969;DHT22;8085;53.472;9.794;2023-07-20T07:41:36;18.00;65.20
15969;DHT22;8085;53.472;9.794;2023-07-20T07:44:03;18.20;64.20
15969;DHT22;8085;53.472;9.794;2023-07-20T07:46:30;18.30;62.40
15969;DHT22;8085;53.472;9.794;2023-07-20T07:48:57;18.50;62.80
15969;DHT22;8085;53.472;9.794;2023-07-20T07:51:25;18.70;62.80
15969;DHT22;8085;53.472;9.794;2023-07-20T07:53:53;18.70;64.40
15969;DHT22;8085;53.472;9.794;2023-07-20T07:56:20;18.80;64.00
15969;DHT22;8085;53.472;9.794;2023-07-20T07:58:49;19.00;59.50
15969;DHT22;8085;53.472;9.794;2023-07-20T08:01:17;18.70;59.50
15969;DHT22;8085;53.472;9.794;2023-07-20T08:03:44;18.50;59.90
15969;DHT22;8085;53.472;9.794;2023-07-20T08:06:13;18.40;60.30
15969;DHT22;8085;53.472;9.794;2023-07-20T08:08:41;18.30;62.20
15969;DHT22;8085;53.472;9.794;2023-07-20T08:11:08;18.20;63.10
15969;DHT22;8085;53.472;9.794;2023-07-20T08:13:35;18.20;62.70
15969;DHT22;8085;53.472;9.794;2023-07-20T08:16:02;18.20;61.50
15969;DHT22;8085;53.472;9.794;2023-07-20T08:18:29;18.10;62.60
15969;DHT22;8085;53.472;9.794;2023-07-20T08:20:56;18.10;62.60
15969;DHT22;8085;53.472;9.794;2023-07-20T08:23:23;18.10;61.80
15969;DHT22;8085;53.472;9.794;2023-07-20T08:25:52;18.10;60.50
15969;DHT22;8085;53.472;9.794;2023-07-20T08:28:19;18.10;62.60
15969;DHT22;8085;53.472;9.794;2023-07-20T08:30:47;18.10;61.00
15969;DHT22;8085;53.472;9.794;2023-07-20T08:33:16;18.10;61.30
15969;DHT22;8085;53.472;9.794;2023-07-20T08:35:43;18.00;62.20
15969;DHT22;8085;53.472;9.794;2023-07-20T08:38:10;18.10;63.40
15969;DHT22;8085;53.472;9.794;2023-07-20T08:40:42;18.30;60.70
15969;DHT22;8085;53.472;9.794;2023-07-20T08:43:12;18.30;60.90
15969;DHT22;8085;53.472;9.794;2023-07-20T08:45:42;18.30;61.10
15969;DHT22;8085;53.472;9.794;2023-07-20T08:48:12;18.10;61.70
15969;DHT22;8085;53.472;9.794;2023-07-20T08:50:39;18.10;59.90
15969;DHT22;8085;53.472;9.794;2023-07-20T08:53:07;18.10;60.30
15969;DHT22;8085;53.472;9.794;2023-07-20T08:55:35;18.00;60.60
15969;DHT22;8085;53.472;9.794;2023-07-20T08:58:03;18.10;60.70
15969;DHT22;8085;53.472;9.794;2023-07-20T09:00:35;18.10;60.50
15969;DHT22;8085;53.472;9.794;2023-07-20T09:03:03;18.10;59.50
15969;DHT22;8085;53.472;9.794;2023-07-20T09:05:30;18.10;61.20
15969;DHT22;8085;53.472;9.794;2023-07-20T09:07:57;18.20;62.30
15969;DHT22;8085;53.472;9.794;2023-07-20T09:10:24;18.20;63.10
15969;DHT22;8085;53.472;9.794;2023-07-20T09:12:51;18.20;62.90
15969;DHT22;8085;53.472;9.794;2023-07-20T09:15:19;18.20;61.70
15969;DHT22;8085;53.472;9.794;2023-07-20T09:17:48;18.30;63.70
15969;DHT22;8085;53.472;9.794;2023-07-20T09:20:16;18.50;63.40
15969;DHT22;8085;53.472;9.794;2023-07-20T09:22:43;18.60;61.90
15969;DHT22;8085;53.472;9.794;2023-07-20T09:25:11;18.80;60.70
15969;DHT22;8085;53.472;9.794;2023-07-20T09:27:40;18.80;60.50
15969;DHT22;8085;53.472;9.794;2023-07-20T09:30:08;18.90;61.40
15969;DHT22;8085;53.472;9.794;2023-07-20T09:32:40;19.10;60.40
15969;DHT22;8085;53.472;9.794;2023-07-20T09:35:14;19.30;59.60
15969;DHT22;8085;53.472;9.794;2023-07-20T09:37:46;19.40;59.90
15969;DHT22;8085;53.472;9.794;2023-07-20T09:40:17;19.50;56.90
15969;DHT22;8085;53.472;9.794;2023-07-20T09:42:44;19.40;57.40
15969;DHT22;8085;53.472;9.794;2023-07-20T09:45:11;19.30;58.10
15969;DHT22;8085;53.472;9.794;2023-07-20T09:47:38;19.10;59.50
15969;DHT22;8085;53.472;9.794;2023-07-20T09:50:07;18.80;60.40
15969;DHT22;8085;53.472;9.794;2023-07-20T09:52:38;18.60;62.50
15969;DHT22;8085;53.472;9.794;2023-07-20T09:55:06;18.60;62.40
15969;DHT22;8085;53.472;9.794;2023-07-20T09:57:34;18.60;63.10
15969;DHT22;8085;53.472;9.794;2023-07-20T10:00:04;18.60;61.60
15969;DHT22;8085;53.472;9.794;2023-07-20T10:02:37;18.70;60.90
15969;DHT22;8085;53.472;9.794;2023-07-20T10:05:08;18.90;59.20
15969;DHT22;8085;53.472;9.794;2023-07-20T10:07:43;18.90;59.60
15969;DHT22;8085;53.472;9.794;2023-07-20T10:10:10;19.00;60.10
15969;DHT22;8085;53.472;9.794;2023-07-20T10:12:39;19.20;56.90
15969;DHT22;8085;53.472;9.794;2023-07-20T10:15:11;19.30;57.00
15969;DHT22;8085;53.472;9.794;2023-07-20T10:17:48;19.40;57.40
15969;DHT22;8085;53.472;9.794;2023-07-20T10:20:17;19.30;58.40
15969;DHT22;8085;53.472;9.794;2023-07-20T10:22:50;19.30;59.80
15969;DHT22;8085;53.472;9.794;2023-07-20T10:25:20;19.30;58.90
15969;DHT22;8085;53.472;9.794;2023-07-20T10:27:49;19.20;58.80
15969;DHT22;8085;53.472;9.794;2023-07-20T10:30:18;19.20;59.10
15969;DHT22;8085;53.472;9.794;2023-07-20T10:32:45;19.10;59.20
15969;DHT22;8085;53.472;9.794;2023-07-20T10:35:14;19.20;58.50
15969;DHT22;8085;53.472;9.794;2023-07-20T10:37:50;19.30;57.70
15969;DHT22;8085;53.472;9.794;2023-07-20T10:40:26;19.50;57.20
15969;DHT22;8085;53.472;9.794;2023-07-20T10:42:57;19.60;56.50
15969;DHT22;8085;53.472;9.794;2023-07-20T10:45:39;19.70;54.90
15969;DHT22;8085;53.472;9.794;2023-07-20T10:48:13;19.90;55.70
15969;DHT22;8085;53.472;9.794;2023-07-20T10:50:41;20.00;56.30
15969;DHT22;8085;53.472;9.794;2023-07-20T10:53:14;20.00;56.20
15969;DHT22;8085;53.472;9.794;2023-07-20T10:55:41;20.10;55.40
15969;DHT22;8085;53.472;9.794;2023-07-20T10:58:10;20.10;54.00
15969;DHT22;8085;53.472;9.794;2023-07-20T11:00:38;20.00;59.20
15969;DHT22;8085;53.472;9.794;2023-07-20T11:03:29;19.40;65.00
15969;DHT22;8085;53.472;9.794;2023-07-20T11:05:57;18.30;70.10
15969;DHT22;8085;53.472;9.794;2023-07-20T11:08:41;17.30;70.40
15969;DHT22;8085;53.472;9.794;2023-07-20T11:11:21;16.40;75.00
15969;DHT22;8085;53.472;9.794;2023-07-20T11:13:58;15.80;79.20
15969;DHT22;8085;53.472;9.794;2023-07-20T11:16:34;15.50;83.30
15969;DHT22;8085;53.472;9.794;2023-07-20T11:19:01;15.40;87.20
15969;DHT22;8085;53.472;9.794;2023-07-20T11:21:29;15.30;88.20
15969;DHT22;8085;53.472;9.794;2023-07-20T11:23:57;15.40;90.30
15969;DHT22;8085;53.472;9.794;2023-07-20T11:26:24;15.50;90.20
15969;DHT22;8085;53.472;9.794;2023-07-20T11:28:51;15.60;90.00
15969;DHT22;8085;53.472;9.794;2023-07-20T11:31:18;15.70;90.30
15969;DHT22;8085;53.472;9.794;2023-07-20T11:33:45;15.90;90.70
15969;DHT22;8085;53.472;9.794;2023-07-20T11:36:12;16.10;90.20
15969;DHT22;8085;53.472;9.794;2023-07-20T11:38:41;16.40;90.50
15969;DHT22;8085;53.472;9.794;2023-07-20T11:41:10;16.60;90.50
15969;DHT22;8085;53.472;9.794;2023-07-20T11:43:38;16.90;89.60
15969;DHT22;8085;53.472;9.794;2023-07-20T11:46:05;17.20;86.00
15969;DHT22;8085;53.472;9.794;2023-07-20T11:48:32;17.50;81.70
15969;DHT22;8085;53.472;9.794;2023-07-20T11:50:59;17.70;76.70
15969;DHT22;8085;53.472;9.794;2023-07-20T11:53:26;17.70;76.90
15969;DHT22;8085;53.472;9.794;2023-07-20T11:55:53;17.70;76.50
15969;DHT22;8085;53.472;9.794;2023-07-20T11:58:22;17.70;74.30
15969;DHT22;8085;53.472;9.794;2023-07-20T12:00:48;17.60;78.50
15969;DHT22;8085;53.472;9.794;2023-07-20T12:03:15;17.70;75.60
15969;DHT22;8085;53.472;9.794;2023-07-20T12:05:42;17.80;70.70
15969;DHT22;8085;53.472;9.794;2023-07-20T12:08:10;17.80;71.00
15969;DHT22;8085;53.472;9.794;2023-07-20T12:10:39;17.70;72.30
15969;DHT22;8085;53.472;9.794;2023-07-20T12:13:10;17.80;70.30
15969;DHT22;8085;53.472;9.794;2023-07-20T12:15:39;17.90;71.20
15969;DHT22;8085;53.472;9.794;2023-07-20T12:18:05;18.10;69.40
15969;DHT22;8085;53.472;9.794;2023-07-20T12:20:34;18.00;67.50
15969;DHT22;8085;53.472;9.794;2023-07-20T12:23:04;17.90;63.40
15969;DHT22;8085;53.472;9.794;2023-07-20T12:25:37;17.70;62.70
15969;DHT22;8085;53.472;9.794;2023-07-20T12:28:05;17.40;64.40
15969;DHT22;8085;53.472;9.794;2023-07-20T12:30:32;17.10;65.60
15969;DHT22;8085;53.472;9.794;2023-07-20T12:33:01;16.90;68.80
15969;DHT22;8085;53.472;9.794;2023-07-20T12:35:28;16.90;68.90
15969;DHT22;8085;53.472;9.794;2023-07-20T12:37:55;16.90;68.20
15969;DHT22;8085;53.472;9.794;2023-07-20T12:40:22;16.90;67.50
15969;DHT22;8085;53.472;9.794;2023-07-20T12:42:49;17.00;68.20
15969;DHT22;8085;53.472;9.794;2023-07-20T12:45:16;17.20;68.90
15969;DHT22;8085;53.472;9.794;2023-07-20T12:47:43;17.40;70.30
15969;DHT22;8085;53.472;9.794;2023-07-20T12:50:11;17.80;70.20
15969;DHT22;8085;53.472;9.794;2023-07-20T12:52:39;18.10;68.40
15969;DHT22;8085;53.472;9.794;2023-07-20T12:55:09;18.30;69.20
15969;DHT22;8085;53.472;9.794;2023-07-20T12:57:36;18.70;68.40
15969;DHT22;8085;53.472;9.794;2023-07-20T13:00:04;19.10;66.10
15969;DHT22;8085;53.472;9.794;2023-07-20T13:02:33;19.30;61.80
15969;DHT22;8085;53.472;9.794;2023-07-20T13:05:00;19.30;58.60
15969;DHT22;8085;53.472;9.794;2023-07-20T13:07:33;19.00;56.60
15969;DHT22;8085;53.472;9.794;2023-07-20T13:10:00;18.80;56.90
15969;DHT22;8085;53.472;9.794;2023-07-20T13:12:27;18.70;57.80
15969;DHT22;8085;53.472;9.794;2023-07-20T13:14:55;18.70;58.40
15969;DHT22;8085;53.472;9.794;2023-07-20T13:17:22;18.70;58.40
15969;DHT22;8085;53.472;9.794;2023-07-20T13:19:49;18.60;59.20
15969;DHT22;8085;53.472;9.794;2023-07-20T13:22:16;18.50;59.70
15969;DHT22;8085;53.472;9.794;2023-07-20T13:24:45;18.40;62.00
15969;DHT22;8085;53.472;9.794;2023-07-20T13:27:14;18.60;61.90
15969;DHT22;8085;53.472;9.794;2023-07-20T13:29:41;18.80;60.70
15969;DHT22;8085;53.472;9.794;2023-07-20T13:32:09;19.00;59.70
15969;DHT22;8085;53.472;9.794;2023-07-20T13:34:36;19.20;59.50
15969;DHT22;8085;53.472;9.794;2023-07-20T13:37:03;19.30;61.50
15969;DHT22;8085;53.472;9.794;2023-07-20T13:39:30;19.60;57.80
15969;DHT22;8085;53.472;9.794;2023-07-20T13:41:58;19.60;58.60
15969;DHT22;8085;53.472;9.794;2023-07-20T13:44:27;19.70;56.60
15969;DHT22;8085;53.472;9.794;2023-07-20T13:46:53;19.80;57.20
15969;DHT22;8085;53.472;9.794;2023-07-20T13:49:20;19.90;57.80
15969;DHT22;8085;53.472;9.794;2023-07-20T13:51:47;20.00;56.10
15969;DHT22;8085;53.472;9.794;2023-07-20T13:54:14;20.10;56.20
15969;DHT22;8085;53.472;9.794;2023-07-20T13:56:41;20.10;57.20
15969;DHT22;8085;53.472;9.794;2023-07-20T13:59:09;20.10;56.90
15969;DHT22;8085;53.472;9.794;2023-07-20T14:01:36;20.20;56.70
15969;DHT22;8085;53.472;9.794;2023-07-20T14:04:03;20.30;56.50
15969;DHT22;8085;53.472;9.794;2023-07-20T14:06:32;20.30;57.90
15969;DHT22;8085;53.472;9.794;2023-07-20T14:08:59;20.50;58.10
15969;DHT22;8085;53.472;9.794;2023-07-20T14:11:26;20.60;55.90
15969;DHT22;8085;53.472;9.794;2023-07-20T14:13:54;20.70;55.70
15969;DHT22;8085;53.472;9.794;2023-07-20T14:16:22;20.70;55.50
15969;DHT22;8085;53.472;9.794;2023-07-20T14:18:49;20.70;54.40
15969;DHT22;8085;53.472;9.794;2023-07-20T14:21:17;20.60;55.20
15969;DHT22;8085;53.472;9.794;2023-07-20T14:23:45;20.50;56.40
15969;DHT22;8085;53.472;9.794;2023-07-20T14:26:12;20.40;56.20
15969;DHT22;8085;53.472;9.794;2023-07-20T14:28:39;20.30;55.60
15969;DHT22;8085;53.472;9.794;2023-07-20T14:31:06;20.30;54.90
15969;DHT22;8085;53.472;9.794;2023-07-20T14:33:34;20.30;54.60
15969;DHT22;8085;53.472;9.794;2023-07-20T14:36:01;20.10;56.00
15969;DHT22;8085;53.472;9.794;2023-07-20T14:38:30;20.00;55.60
15969;DHT22;8085;53.472;9.794;2023-07-20T14:40:57;19.80;56.00
15969;DHT22;8085;53.472;9.794;2023-07-20T14:43:24;19.70;56.20
15969;DHT22;8085;53.472;9.794;2023-07-20T14:45:50;19.60;56.00
15969;DHT22;8085;53.472;9.794;2023-07-20T14:48:17;19.60;55.20
15969;DHT22;8085;53.472;9.794;2023-07-20T14:50:45;19.60;55.30
15969;DHT22;8085;53.472;9.794;2023-07-20T14:53:13;19.70;55.80
15969;DHT22;8085;53.472;9.794;2023-07-20T14:55:41;19.80;55.70
15969;DHT22;8085;53.472;9.794;2023-07-20T14:58:07;19.90;56.20
15969;DHT22;8085;53.472;9.794;2023-07-20T15:00:34;20.00;54.00
15969;DHT22;8085;53.472;9.794;2023-07-20T15:03:01;20.20;53.40
15969;DHT22;8085;53.472;9.794;2023-07-20T15:05:28;20.20;53.30
15969;DHT22;8085;53.472;9.794;2023-07-20T15:07:56;20.10;53.00
15969;DHT22;8085;53.472;9.794;2023-07-20T15:10:23;20.00;53.80
15969;DHT22;8085;53.472;9.794;2023-07-20T15:12:50;19.90;53.40
15969;DHT22;8085;53.472;9.794;2023-07-20T15:15:17;20.00;53.20
15969;DHT22;8085;53.472;9.794;2023-07-20T15:17:44;20.00;53.80
15969;DHT22;8085;53.472;9.794;2023-07-20T15:20:13;20.10;54.60
15969;DHT22;8085;53.472;9.794;2023-07-20T15:22:40;20.00;54.90
15969;DHT22;8085;53.472;9.794;2023-07-20T15:25:09;19.90;55.80
15969;DHT22;8085;53.472;9.794;2023-07-20T15:27:37;19.90;56.20
15969;DHT22;8085;53.472;9.794;2023-07-20T15:30:05;19.90;56.00
15969;DHT22;8085;53.472;9.794;2023-07-20T15:32:32;19.90;55.80
15969;DHT22;8085;53.472;9.794;2023-07-20T15:34:59;19.80;56.00
15969;DHT22;8085;53.472;9.794;2023-07-20T15:37:26;19.70;56.90
15969;DHT22;8085;53.472;9.794;2023-07-20T15:39:53;19.70;57.10
15969;DHT22;8085;53.472;9.794;2023-07-20T15:42:21;19.80;54.40
15969;DHT22;8085;53.472;9.794;2023-07-20T15:44:48;19.90;55.60
15969;DHT22;8085;53.472;9.794;2023-07-20T15:47:15;19.90;54.50
15969;DHT22;8085;53.472;9.794;2023-07-20T15:49:43;19.80;54.90
15969;DHT22;8085;53.472;9.794;2023-07-20T15:52:09;19.70;55.00